Time;durP1;ratioP1;P1;durP2;ratioP2;P2;SDS_P1;SDS_P2;PMS_P1;PMS_P2;Temp;Humidity;BMP_temperature;BMP_pressure;BME280_temperature;BME280_humidity;BME280_pressure;Samples;Min_cycle;Max_cycle;Signal;HPM_P1;HPM_P2
2022/06/11 00:02:26;;;;;;;4.67;2.90;;;9.70;99.90;;;;;;5090053;28;20391;-81
2022/06/11 00:04:53;;;;;;;3.00;2.40;;;9.80;99.90;;;;;;5090026;28;20421;-81
2022/06/11 00:07:24;;;;;;;2.50;2.30;;;10.10;99.90;;;;;;5089936;28;20379;-82
2022/06/11 00:09:52;;;;;;;3.08;2.20;;;10.10;99.90;;;;;;5090545;28;20372;-83
2022/06/11 00:12:20;;;;;;;3.33;2.00;;;10.70;99.90;;;;;;5089911;28;20404;-84
2022/06/11 00:14:48;;;;;;;3.17;1.90;;;10.80;99.90;;;;;;5089845;28;20392;-82
2022/06/11 00:17:18;;;;;;;2.42;1.80;;;10.80;99.90;;;;;;5089827;28;20418;-81
2022/06/11 00:19:46;;;;;;;2.78;2.13;;;10.90;99.90;;;;;;5089998;28;20386;-81
2022/06/11 00:22:14;;;;;;;3.85;2.13;;;11.10;99.90;;;;;;5089843;28;20376;-80
2022/06/11 00:24:42;;;;;;;4.38;2.10;;;11.30;99.90;;;;;;5089596;28;20852;-81
2022/06/11 00:27:10;;;;;;;2.72;2.00;;;11.40;99.90;;;;;;5089651;28;20744;-81
2022/06/11 00:29:39;;;;;;;3.55;1.90;;;11.60;99.90;;;;;;5089454;28;20783;-80
2022/06/11 00:32:09;;;;;;;2.58;2.00;;;11.70;99.90;;;;;;5089598;28;20431;-81
2022/06/11 00:34:37;;;;;;;1.70;1.60;;;11.80;99.90;;;;;;5089637;28;20360;-79
2022/06/11 00:37:05;;;;;;;2.42;1.50;;;11.90;98.30;;;;;;5089758;28;20403;-80
2022/06/11 00:39:36;;;;;;;2.53;1.60;;;12.10;97.70;;;;;;5089515;28;20838;-80
2022/06/11 00:42:08;;;;;;;1.80;1.27;;;12.20;96.20;;;;;;5089611;28;20737;-80
2022/06/11 00:44:36;;;;;;;2.10;1.27;;;12.40;94.70;;;;;;5089529;28;20356;-83
2022/06/11 00:47:06;;;;;;;1.80;1.30;;;12.30;95.50;;;;;;5089326;28;20694;-83
2022/06/11 00:49:55;;;;;;;1.38;1.20;;;12.30;95.50;;;;;;5089367;28;20391;-81
2022/06/11 00:52:43;;;;;;;1.77;1.30;;;12.30;93.90;;;;;;5089648;28;20387;-80
2022/06/11 00:55:28;;;;;;;2.45;1.30;;;12.60;94.00;;;;;;5089267;28;20426;-82
2022/06/11 00:58:06;;;;;;;1.50;1.10;;;12.70;94.40;;;;;;5089292;28;20400;-81
2022/06/11 01:00:45;;;;;;;1.95;1.20;;;12.70;93.30;;;;;;5089441;28;20360;-80
2022/06/11 01:03:17;;;;;;;1.90;1.40;;;12.60;93.10;;;;;;5089618;28;20384;-83
2022/06/11 01:05:51;;;;;;;1.73;1.30;;;12.60;93.90;;;;;;5089675;28;20367;-80
2022/06/11 01:08:39;;;;;;;2.00;1.15;;;12.80;91.70;;;;;;5088445;28;20369;-80
2022/06/11 01:11:21;;;;;;;2.22;1.30;;;12.80;91.70;;;;;;5089646;28;20357;-81
2022/06/11 01:14:36;;;;;;;3.10;1.30;;;12.90;91.90;;;;;;5089422;28;20852;-80
2022/06/11 01:17:09;;;;;;;1.10;1.00;;;13.10;91.90;;;;;;4987419;28;20436;-79
2022/06/11 01:20:03;;;;;;;1.60;1.10;;;13.20;90.80;;;;;;4987434;28;20431;-80
2022/06/11 01:23:00;;;;;;;1.65;1.10;;;13.20;91.00;;;;;;4987716;28;20396;-80
2022/06/11 01:25:44;;;;;;;1.33;1.00;;;13.20;91.60;;;;;;4987677;28;20372;-80
2022/06/11 01:28:19;;;;;;;1.50;1.10;;;13.40;91.10;;;;;;4987777;28;20963;-80
2022/06/11 01:30:51;;;;;;;1.45;1.10;;;13.60;90.90;;;;;;4987346;28;20461;-85
2022/06/11 01:33:46;;;;;;;2.40;1.20;;;13.80;89.50;;;;;;4987533;28;20726;-81
2022/06/11 01:36:21;;;;;;;1.20;1.00;;;13.90;88.30;;;;;;4993949;28;20771;-84
2022/06/11 01:38:55;;;;;;;2.88;1.20;;;14.10;85.70;;;;;;5005773;28;20395;-84
2022/06/11 01:41:48;;;;;;;1.88;1.00;;;14.20;88.50;;;;;;5006783;28;20375;-81
2022/06/11 01:44:24;;;;;;;1.33;1.00;;;14.40;87.00;;;;;;5007106;28;20375;-80
2022/06/11 01:46:54;;;;;;;2.28;1.30;;;14.40;82.00;;;;;;5016048;28;20848;-81
2022/06/11 01:49:21;;;;;;;1.77;1.10;;;14.40;85.00;;;;;;5088709;28;20866;-80
2022/06/11 01:52:29;;;;;;;2.15;0.90;;;14.50;84.30;;;;;;5088831;28;20376;-83
2022/06/11 01:55:22;;;;;;;2.75;1.05;;;14.50;82.50;;;;;;5088689;28;20941;-80
2022/06/11 01:58:08;;;;;;;1.30;0.95;;;14.60;80.40;;;;;;5088221;28;20396;-85
2022/06/11 02:00:38;;;;;;;1.92;1.00;;;14.70;80.20;;;;;;5088837;28;20391;-81
2022/06/11 02:03:24;;;;;;;1.70;0.90;;;14.80;79.90;;;;;;5088347;28;20372;-80
2022/06/11 02:06:12;;;;;;;1.65;0.90;;;14.80;78.50;;;;;;5087701;28;20937;-82
2022/06/11 02:09:03;;;;;;;2.00;1.00;;;14.70;79.50;;;;;;5089067;28;20805;-82
2022/06/11 02:11:33;;;;;;;1.60;0.93;;;14.90;79.90;;;;;;5088925;28;20779;-84
2022/06/11 02:14:18;;;;;;;1.50;1.00;;;15.00;80.80;;;;;;5089035;28;20387;-83
2022/06/11 02:17:14;;;;;;;1.08;0.90;;;14.90;80.60;;;;;;5088457;28;20459;-80
2022/06/11 02:20:07;;;;;;;2.15;1.00;;;15.00;77.50;;;;;;5085448;28;20431;-82
2022/06/11 02:22:46;;;;;;;0.60;0.60;;;14.90;77.80;;;;;;5081662;28;20441;-83
2022/06/11 02:25:30;;;;;;;0.47;0.38;;;15.10;70.10;;;;;;5092730;28;20357;-82
2022/06/11 02:28:02;;;;;;;3.23;0.40;;;15.50;65.50;;;;;;5092210;28;20420;-83
2022/06/11 02:30:32;;;;;;;1.05;0.30;;;15.60;63.60;;;;;;5091995;28;20361;-81
2022/06/11 02:32:59;;;;;;;0.30;0.30;;;15.70;62.80;;;;;;5091885;28;20925;-81
2022/06/11 02:35:38;;;;;;;0.40;0.40;;;15.80;63.50;;;;;;5091809;28;20917;-81
2022/06/11 02:38:11;;;;;;;0.80;0.40;;;16.00;62.30;;;;;;5091982;28;20767;-82
2022/06/11 02:41:10;;;;;;;0.90;0.30;;;16.00;60.20;;;;;;5092239;28;20364;-84
2022/06/11 02:43:38;;;;;;;0.30;0.30;;;16.00;59.60;;;;;;4990173;28;20440;-83
2022/06/11 02:48:52;;;;;;;0.70;0.30;;;16.30;59.60;;;;;;4990813;28;20396;-81
2022/06/11 02:51:23;;;;;;;0.87;0.40;;;16.30;57.30;;;;;;4990277;28;20391;-84
2022/06/11 02:53:50;;;;;;;3.20;0.50;;;16.20;57.20;;;;;;4990155;28;20467;-81
2022/06/11 02:56:18;;;;;;;2.78;0.50;;;16.00;58.50;;;;;;4990108;28;20405;-79
2022/06/11 02:58:45;;;;;;;1.02;0.30;;;15.90;58.80;;;;;;4990186;28;20471;-84
2022/06/11 03:01:13;;;;;;;1.30;0.40;;;16.00;59.00;;;;;;4990060;28;20381;-80
2022/06/11 03:03:40;;;;;;;1.00;0.45;;;16.00;58.70;;;;;;4990105;28;20405;-83
2022/06/11 03:06:07;;;;;;;1.07;0.50;;;16.00;59.20;;;;;;4989953;28;20389;-86
2022/06/11 03:08:34;;;;;;;0.68;0.40;;;16.10;57.70;;;;;;4989977;28;20980;-81
2022/06/11 03:11:01;;;;;;;0.88;0.50;;;16.10;57.70;;;;;;4990027;28;20418;-85
2022/06/11 03:13:30;;;;;;;1.57;0.70;;;16.10;58.40;;;;;;4989891;28;20538;-84
2022/06/11 03:15:58;;;;;;;0.70;0.50;;;16.20;58.10;;;;;;4989872;28;20380;-85
2022/06/11 03:18:26;;;;;;;1.27;0.50;;;16.10;57.50;;;;;;4989928;28;20876;-79
2022/06/11 03:20:54;;;;;;;1.38;0.60;;;16.00;57.50;;;;;;5078901;28;20798;-85
2022/06/11 03:23:22;;;;;;;1.73;0.47;;;15.90;58.00;;;;;;5091265;28;20384;-85
2022/06/11 03:25:49;;;;;;;1.30;0.50;;;16.10;57.60;;;;;;5091083;28;20372;-86
2022/06/11 03:28:23;;;;;;;2.63;0.70;;;16.00;57.20;;;;;;5091362;28;20380;-85
2022/06/11 03:30:51;;;;;;;1.95;0.60;;;16.00;56.90;;;;;;5090360;28;20493;-82
2022/06/11 03:33:19;;;;;;;3.58;0.57;;;16.00;56.80;;;;;;5091187;28;20381;-87
2022/06/11 03:35:48;;;;;;;4.22;0.60;;;15.90;58.30;;;;;;5090655;28;20384;-82
2022/06/11 03:38:16;;;;;;;2.03;0.50;;;16.00;57.50;;;;;;5090816;28;20465;-85
2022/06/11 03:40:44;;;;;;;1.90;0.50;;;16.10;56.40;;;;;;5090828;28;20384;-84
2022/06/11 03:43:11;;;;;;;1.95;0.50;;;16.10;57.00;;;;;;5090720;28;20867;-85
2022/06/11 03:45:41;;;;;;;400.10;28.05;;;16.10;56.60;;;;;;5091212;28;20377;-82
2022/06/11 03:48:09;;;;;;;5.27;0.80;;;16.00;57.10;;;;;;5090485;28;20376;-86
2022/06/11 03:50:38;;;;;;;2.13;0.55;;;16.00;56.20;;;;;;5090468;28;20867;-81
2022/06/11 03:53:09;;;;;;;2.70;0.63;;;16.10;56.80;;;;;;5090457;28;20381;-81
2022/06/11 03:55:38;;;;;;;4.97;0.90;;;16.00;55.50;;;;;;5090302;28;20387;-85
2022/06/11 03:58:06;;;;;;;1.15;0.50;;;16.00;56.10;;;;;;5090796;28;20385;-81
2022/06/11 04:03:21;;;;;;;3.10;0.70;;;16.00;55.80;;;;;;5091469;28;20363;-82
2022/06/11 04:05:50;;;;;;;2.20;0.70;;;16.00;56.60;;;;;;5092333;28;20369;-85
2022/06/11 04:08:17;;;;;;;1.70;0.63;;;16.10;55.30;;;;;;5090987;28;20404;-81
2022/06/11 04:10:45;;;;;;;2.75;0.60;;;16.20;55.40;;;;;;5090247;28;20917;-80
2022/06/11 04:13:13;;;;;;;3.05;0.50;;;16.00;53.50;;;;;;5090242;28;20394;-85
2022/06/11 04:15:41;;;;;;;2.67;0.52;;;16.00;53.90;;;;;;5090172;28;20795;-88
2022/06/11 04:18:16;;;;;;;1.42;0.60;;;16.00;53.40;;;;;;5090235;28;20381;-84
2022/06/11 04:20:44;;;;;;;3.10;0.70;;;16.00;53.90;;;;;;5090355;28;20391;-84
2022/06/11 04:23:11;;;;;;;0.82;0.55;;;16.20;53.50;;;;;;5089812;28;20718;-82
2022/06/11 04:25:38;;;;;;;1.97;0.60;;;16.20;53.10;;;;;;5089818;28;20414;-85
2022/06/11 04:28:05;;;;;;;1.98;0.55;;;16.30;52.40;;;;;;5089959;28;20384;-85
2022/06/11 04:30:33;;;;;;;73.85;43.85;;;16.10;52.00;;;;;;5089789;28;20921;-80
2022/06/11 04:33:00;;;;;;;21.45;14.68;;;15.90;52.00;;;;;;5089563;28;20802;-83
2022/06/11 04:35:27;;;;;;;29.15;23.17;;;15.70;53.70;;;;;;5089307;28;20471;-79
2022/06/11 04:37:54;;;;;;;15.48;12.82;;;15.60;54.10;;;;;;5089381;28;20396;-83
2022/06/11 04:40:21;;;;;;;4.90;4.40;;;15.60;53.30;;;;;;5089616;28;20413;-82
2022/06/11 04:42:48;;;;;;;4.30;3.80;;;15.60;53.70;;;;;;5088476;28;20384;-80
2022/06/11 04:45:18;;;;;;;1.42;1.20;;;15.60;52.80;;;;;;5089485;28;20364;-81
2022/06/11 04:47:46;;;;;;;1.80;1.58;;;15.70;52.50;;;;;;5089523;28;20752;-81
2022/06/11 04:50:17;;;;;;;1.47;0.80;;;15.80;53.40;;;;;;5089438;28;20369;-84
2022/06/11 04:52:45;;;;;;;2.35;1.00;;;15.90;52.90;;;;;;5089256;28;20479;-81
2022/06/11 04:55:13;;;;;;;3.40;1.00;;;16.10;53.40;;;;;;5089237;28;20403;-81
2022/06/11 04:57:43;;;;;;;2.00;0.70;;;16.20;52.60;;;;;;5089227;28;20432;-84
2022/06/11 05:00:13;;;;;;;1.60;0.80;;;15.90;53.30;;;;;;5089406;28;20765;-84
2022/06/11 05:02:40;;;;;;;1.45;0.60;;;15.80;53.70;;;;;;5089313;28;20400;-81
2022/06/11 05:05:08;;;;;;;0.82;0.60;;;15.80;53.00;;;;;;5089197;28;20374;-81
2022/06/11 05:07:35;;;;;;;1.30;0.55;;;15.70;53.60;;;;;;5071198;28;20449;-85
2022/06/11 05:10:03;;;;;;;3.85;2.30;;;15.70;54.00;;;;;;5070973;28;20377;-83
2022/06/11 05:12:30;;;;;;;1.57;1.00;;;15.60;52.90;;;;;;5088958;28;20372;-84
2022/06/11 05:14:57;;;;;;;2.95;1.73;;;15.60;53.50;;;;;;5089173;28;20372;-81
2022/06/11 05:17:25;;;;;;;1.40;0.70;;;15.60;54.50;;;;;;5089057;28;20466;-82
2022/06/11 05:19:52;;;;;;;1.70;0.50;;;15.60;53.90;;;;;;5089188;28;20371;-81
2022/06/11 05:22:19;;;;;;;2.00;0.70;;;15.60;54.80;;;;;;5089044;28;20369;-83
2022/06/11 05:24:47;;;;;;;1.50;0.60;;;15.50;54.70;;;;;;5089043;28;20376;-84
2022/06/11 05:27:19;;;;;;;1.25;0.50;;;15.50;54.50;;;;;;5088708;28;20380;-82
2022/06/11 05:29:52;;;;;;;0.98;0.80;;;15.50;54.10;;;;;;5088797;28;20364;-86
2022/06/11 05:32:22;;;;;;;4.95;3.97;;;15.50;54.30;;;;;;5070501;28;20421;-83
2022/06/11 05:34:49;;;;;;;1.92;1.17;;;15.40;54.60;;;;;;5088677;28;20851;-84
2022/06/11 05:37:17;;;;;;;1.77;0.98;;;15.50;54.20;;;;;;5088719;28;20403;-86
2022/06/11 05:39:46;;;;;;;2.60;2.37;;;15.40;54.40;;;;;;5088716;28;20396;-82
2022/06/11 05:42:15;;;;;;;0.80;0.73;;;15.40;54.40;;;;;;5088717;28;20437;-84
2022/06/11 05:44:42;;;;;;;0.82;0.40;;;15.40;54.30;;;;;;5088618;28;20856;-86
2022/06/11 05:47:13;;;;;;;0.93;0.50;;;15.40;54.50;;;;;;5088972;28;20977;-84
2022/06/11 05:49:45;;;;;;;1.85;0.52;;;15.30;55.50;;;;;;5089076;28;20855;-83
2022/06/11 05:52:23;;;;;;;0.77;0.50;;;15.30;55.10;;;;;;5088552;28;20383;-83
2022/06/11 05:54:51;;;;;;;1.35;0.60;;;15.40;55.10;;;;;;5093359;28;20357;-83
2022/06/11 05:57:23;;;;;;;1.17;0.60;;;15.40;55.50;;;;;;5093083;28;20404;-86
2022/06/11 05:59:59;;;;;;;0.77;0.47;;;15.20;55.80;;;;;;5092826;28;20360;-86
2022/06/11 06:02:27;;;;;;;1.58;0.75;;;15.10;56.40;;;;;;5093081;28;20838;-83
2022/06/11 06:04:55;;;;;;;1.38;0.50;;;15.00;56.50;;;;;;5093069;28;20379;-84
2022/06/11 06:07:22;;;;;;;1.40;0.60;;;15.00;56.30;;;;;;5092873;28;20455;-86
2022/06/11 06:09:49;;;;;;;2.72;0.68;;;15.00;56.20;;;;;;5093274;28;20376;-84
2022/06/11 06:12:17;;;;;;;1.63;0.70;;;14.90;57.00;;;;;;5094115;28;20482;-86
2022/06/11 06:14:45;;;;;;;1.30;0.70;;;14.80;56.90;;;;;;5094620;28;20396;-82
2022/06/11 06:17:18;;;;;;;1.08;0.57;;;14.70;57.50;;;;;;5094828;28;20403;-84
2022/06/11 06:19:45;;;;;;;1.52;0.60;;;14.70;57.00;;;;;;5093187;28;20364;-82
2022/06/11 06:22:12;;;;;;;2.15;0.60;;;14.60;57.80;;;;;;5092598;28;20384;-82
2022/06/11 06:24:39;;;;;;;1.48;0.80;;;14.60;57.70;;;;;;5092851;28;20377;-85
2022/06/11 06:27:07;;;;;;;1.35;0.68;;;14.50;57.80;;;;;;5093140;28;20383;-83
2022/06/11 06:29:34;;;;;;;3.22;2.42;;;14.40;57.20;;;;;;5092357;28;20447;-86
2022/06/11 06:32:01;;;;;;;5.50;3.77;;;14.30;57.30;;;;;;5092142;28;21001;-85
2022/06/11 06:34:28;;;;;;;5.68;2.78;;;14.30;57.90;;;;;;5092125;28;20376;-86
2022/06/11 06:36:55;;;;;;;4.38;3.08;;;14.10;58.00;;;;;;5071578;28;20412;-83
2022/06/11 06:39:22;;;;;;;8.98;7.32;;;14.00;58.40;;;;;;5071747;28;20362;-81
2022/06/11 06:41:49;;;;;;;1.83;1.65;;;14.00;58.40;;;;;;5071581;28;20388;-85
2022/06/11 06:44:17;;;;;;;4.57;3.88;;;13.90;58.70;;;;;;5071505;28;20370;-86
2022/06/11 06:46:44;;;;;;;11.07;7.22;;;13.80;58.20;;;;;;5071901;28;20401;-84
2022/06/11 06:49:11;;;;;;;10.30;7.15;;;13.80;58.40;;;;;;5071615;28;20373;-82
2022/06/11 06:51:38;;;;;;;9.80;7.95;;;13.70;58.80;;;;;;5071852;28;20431;-84
2022/06/11 06:54:05;;;;;;;12.73;8.57;;;13.60;59.30;;;;;;5071474;28;20427;-81
2022/06/11 06:56:33;;;;;;;6.93;5.07;;;13.50;59.20;;;;;;5071388;28;20406;-81
2022/06/11 06:59:05;;;;;;;4.93;3.00;;;13.40;59.80;;;;;;5075226;28;20927;-83
2022/06/11 07:01:33;;;;;;;1.70;1.15;;;13.30;60.40;;;;;;5080545;28;20383;-83
2022/06/11 07:04:00;;;;;;;1.92;0.95;;;13.30;60.10;;;;;;5074836;28;20370;-86
2022/06/11 07:06:27;;;;;;;1.88;1.08;;;13.20;60.20;;;;;;5070801;28;20378;-81
2022/06/11 07:08:55;;;;;;;1.60;1.17;;;13.10;60.60;;;;;;5071451;28;20385;-86
2022/06/11 07:11:22;;;;;;;2.17;1.60;;;13.10;61.00;;;;;;5071514;28;20938;-81
2022/06/11 07:13:50;;;;;;;2.35;1.20;;;13.00;61.30;;;;;;5071114;28;20465;-86
2022/06/11 07:16:29;;;;;;;1.85;0.90;;;13.00;61.80;;;;;;5071046;28;20445;-86
2022/06/11 07:19:01;;;;;;;1.20;1.10;;;12.80;62.00;;;;;;5071038;28;20388;-86
2022/06/11 07:21:36;;;;;;;3.58;2.65;;;12.70;62.40;;;;;;5053072;28;20443;-84
2022/06/11 07:24:17;;;;;;;4.10;3.08;;;12.60;63.40;;;;;;5071230;28;20734;-85
2022/06/11 07:26:50;;;;;;;6.88;6.22;;;12.60;63.60;;;;;;5071562;28;20385;-84
2022/06/11 07:29:22;;;;;;;4.45;4.05;;;12.40;64.30;;;;;;5071179;28;20830;-87
2022/06/11 07:31:53;;;;;;;3.53;1.75;;;12.40;64.30;;;;;;5070676;28;20377;-85
2022/06/11 07:34:20;;;;;;;11.20;9.18;;;12.20;65.40;;;;;;5070874;28;20423;-86
2022/06/11 07:36:48;;;;;;;2.92;2.10;;;12.10;65.90;;;;;;5089966;28;20411;-81
2022/06/11 07:39:15;;;;;;;18.20;15.40;;;11.90;66.70;;;;;;5091107;28;20460;-85
2022/06/11 07:41:43;;;;;;;4.00;2.83;;;11.70;67.40;;;;;;5091057;28;20848;-87
2022/06/11 07:44:10;;;;;;;2.40;1.52;;;11.50;68.20;;;;;;5090786;28;20394;-83
2022/06/11 07:46:37;;;;;;;3.10;1.80;;;11.40;68.80;;;;;;5090948;28;20360;-82
2022/06/11 07:49:04;;;;;;;3.35;1.92;;;11.40;69.70;;;;;;5090943;28;20369;-86
2022/06/11 07:51:31;;;;;;;3.50;2.63;;;11.30;69.90;;;;;;5073000;28;20387;-84
2022/06/11 07:53:58;;;;;;;3.30;1.83;;;11.20;69.70;;;;;;5090603;28;20385;-85
2022/06/11 07:56:26;;;;;;;3.80;2.08;;;11.20;69.10;;;;;;5091034;28;20391;-82
2022/06/11 07:58:53;;;;;;;2.83;2.10;;;11.50;68.30;;;;;;5091655;28;20557;-83
2022/06/11 08:01:20;;;;;;;3.70;2.40;;;11.50;69.80;;;;;;5091019;28;20404;-81
2022/06/11 08:03:48;;;;;;;4.43;2.63;;;11.30;70.60;;;;;;5090518;28;20368;-81
2022/06/11 08:06:15;;;;;;;4.22;2.72;;;11.20;72.20;;;;;;5090731;28;20633;-82
2022/06/11 08:08:45;;;;;;;3.20;2.70;;;10.90;72.50;;;;;;5090020;28;20400;-81
2022/06/11 08:11:12;;;;;;;2.58;1.83;;;10.90;71.60;;;;;;5089965;28;20433;-82
2022/06/11 08:13:39;;;;;;;3.40;2.25;;;11.00;71.40;;;;;;5090155;28;20376;-81
2022/06/11 08:16:06;;;;;;;3.20;2.30;;;10.90;72.20;;;;;;5089748;28;20736;-86
2022/06/11 08:18:34;;;;;;;3.33;2.58;;;10.80;72.90;;;;;;5090019;28;20381;-81
2022/06/11 08:21:01;;;;;;;3.30;2.43;;;10.60;73.60;;;;;;5089891;28;20388;-86
2022/06/11 08:23:28;;;;;;;5.57;3.90;;;10.60;74.00;;;;;;5089741;28;20372;-83
2022/06/11 08:25:56;;;;;;;4.53;2.38;;;10.60;73.60;;;;;;5089804;28;20400;-86
2022/06/11 08:28:24;;;;;;;2.95;1.70;;;10.70;73.70;;;;;;5089970;28;20465;-84
2022/06/11 08:30:52;;;;;;;5.50;1.70;;;10.60;73.40;;;;;;5089610;28;20361;-84
2022/06/11 08:33:19;;;;;;;3.35;1.50;;;10.60;73.00;;;;;;5090038;28;20384;-84
2022/06/11 08:35:46;;;;;;;2.47;1.42;;;10.60;73.70;;;;;;5089429;28;20791;-81
2022/06/11 08:38:14;;;;;;;3.00;1.30;;;10.80;72.00;;;;;;5089667;28;20407;-79
2022/06/11 08:40:56;;;;;;;6.00;3.45;;;10.80;72.80;;;;;;5089644;28;20400;-87
2022/06/11 08:43:31;;;;;;;10.80;7.45;;;10.70;73.00;;;;;;5089593;28;20417;-85
2022/06/11 08:46:15;;;;;;;2.03;1.45;;;10.60;73.40;;;;;;5089416;28;20721;-86
2022/06/11 08:48:59;;;;;;;2.10;1.30;;;10.60;73.20;;;;;;5089540;28;20855;-81
2022/06/11 08:51:58;;;;;;;3.33;1.30;;;10.60;73.40;;;;;;5089757;28;20371;-82
2022/06/11 08:54:35;;;;;;;2.28;1.10;;;10.50;72.90;;;;;;4988013;28;20509;-83
2022/06/11 08:57:13;;;;;;;2.77;1.30;;;10.60;73.00;;;;;;4988624;28;20505;-85
2022/06/11 08:59:43;;;;;;;3.03;1.30;;;10.80;72.20;;;;;;4988883;28;20903;-81
2022/06/11 09:02:34;;;;;;;2.60;1.15;;;11.00;71.10;;;;;;4971967;28;20397;-85
2022/06/11 09:05:33;;;;;;;2.15;0.98;;;11.00;71.00;;;;;;4988454;28;20464;-81
2022/06/11 09:08:18;;;;;;;5.73;3.20;;;10.90;71.20;;;;;;4988289;28;20893;-83
2022/06/11 09:10:53;;;;;;;10.97;6.70;;;10.70;71.60;;;;;;4987615;28;20391;-82
2022/06/11 09:13:43;;;;;;;9.83;7.20;;;10.70;72.30;;;;;;4987951;28;20464;-80
2022/06/11 09:16:13;;;;;;;3.25;1.83;;;10.70;72.20;;;;;;4930732;29;20377;-87
2022/06/11 09:18:52;;;;;;;9.50;7.43;;;10.80;72.00;;;;;;4931059;29;20390;-86
2022/06/11 09:21:29;;;;;;;14.80;11.15;;;10.80;72.00;;;;;;4931597;29;20386;-85
2022/06/11 09:24:32;;;;;;;5.68;3.65;;;10.70;72.20;;;;;;4931470;29;20397;-81
2022/06/11 09:27:24;;;;;;;4.93;3.65;;;10.70;72.50;;;;;;4930247;29;20390;-87
2022/06/11 09:29:51;;;;;;;6.90;4.33;;;10.80;72.50;;;;;;4942902;28;20873;-86
2022/06/11 09:32:29;;;;;;;3.45;1.60;;;10.70;73.20;;;;;;5027096;28;20392;-85
2022/06/11 09:35:25;;;;;;;3.20;1.90;;;10.70;73.20;;;;;;5026747;28;20385;-85
2022/06/11 09:38:05;;;;;;;5.93;2.57;;;10.70;73.10;;;;;;5028150;28;20532;-82
2022/06/11 09:40:41;;;;;;;4.15;1.75;;;10.60;73.30;;;;;;5027149;28;20376;-86
2022/06/11 09:43:14;;;;;;;4.40;2.40;;;10.70;73.60;;;;;;5027049;28;20381;-84
2022/06/11 09:45:54;;;;;;;3.53;1.70;;;10.60;73.60;;;;;;5027142;28;20377;-81
2022/06/11 09:49:01;;;;;;;4.28;1.80;;;10.70;73.40;;;;;;5027553;28;20402;-86
2022/06/11 09:51:51;;;;;;;3.70;1.42;;;10.70;73.50;;;;;;5027009;28;20377;-86
2022/06/11 09:54:33;;;;;;;10.57;7.50;;;10.70;73.60;;;;;;5081379;28;20368;-86
2022/06/11 09:57:20;;;;;;;8.82;5.57;;;10.80;73.50;;;;;;5094855;28;20741;-85
2022/06/11 10:00:00;;;;;;;10.30;5.47;;;10.70;73.60;;;;;;5092092;28;20459;-80
2022/06/11 10:02:36;;;;;;;4.30;2.08;;;10.70;73.30;;;;;;5092463;28;20357;-80
2022/06/11 10:05:15;;;;;;;14.43;8.88;;;10.80;72.70;;;;;;5095014;28;20372;-79
2022/06/11 10:07:51;;;;;;;13.57;8.55;;;10.90;72.30;;;;;;5093248;28;20392;-82
2022/06/11 10:10:33;;;;;;;15.15;9.93;;;10.80;72.60;;;;;;5092727;28;20361;-88
2022/06/11 10:13:14;;;;;;;3.88;2.25;;;10.80;72.50;;;;;;5096812;28;20369;-90
2022/06/11 10:15:46;;;;;;;5.03;2.00;;;10.20;72.70;;;;;;5078789;28;20380;-91
2022/06/11 10:18:29;;;;;;;5.20;2.30;;;10.70;73.00;;;;;;5096808;28;20757;-87
2022/06/11 10:21:19;;;;;;;3.70;1.70;;;10.60;73.60;;;;;;5096276;28;20367;-89
2022/06/11 10:24:04;;;;;;;4.18;1.95;;;10.70;73.40;;;;;;5095736;28;20383;-81
2022/06/11 10:26:42;;;;;;;2.50;1.25;;;10.60;74.00;;;;;;5099243;28;20361;-86
2022/06/11 10:29:31;;;;;;;4.78;2.15;;;10.50;74.00;;;;;;5076678;28;20518;-89
2022/06/11 10:32:14;;;;;;;4.22;1.60;;;10.40;75.00;;;;;;5094714;28;20368;-86
2022/06/11 10:34:58;;;;;;;6.07;2.83;;;10.30;75.50;;;;;;5092498;28;20729;-91
2022/06/11 10:37:50;;;;;;;3.70;1.55;;;10.30;75.50;;;;;;5091436;28;20393;-87
2022/06/11 10:40:34;;;;;;;4.40;1.40;;;10.30;76.00;;;;;;5093238;28;20410;-87
2022/06/11 10:43:42;;;;;;;3.40;1.40;;;10.20;76.50;;;;;;5093532;28;20398;-87
2022/06/11 10:46:11;;;;;;;4.82;1.42;;;10.10;77.10;;;;;;5088333;28;20376;-88
2022/06/11 10:48:40;;;;;;;4.25;1.58;;;9.90;77.90;;;;;;5093475;28;20443;-90
2022/06/11 10:51:22;;;;;;;4.53;2.50;;;9.80;78.80;;;;;;5074854;28;20391;-91
2022/06/11 10:57:21;;;;;;;4.47;1.88;;;9.70;79.80;;;;;;5094861;28;20545;-84
2022/06/11 11:00:10;;;;;;;4.47;2.03;;;9.60;80.30;;;;;;5091964;28;20834;-91
2022/06/11 11:03:13;;;;;;;4.85;2.83;;;9.60;80.80;;;;;;5094350;28;20871;-91
2022/06/11 11:06:07;;;;;;;6.30;3.65;;;9.50;81.50;;;;;;5092794;28;20373;-92
2022/06/11 11:08:37;;;;;;;7.93;4.60;;;9.40;82.40;;;;;;5092468;28;20373;-86
2022/06/11 11:11:10;;;;;;;5.22;2.88;;;9.40;82.80;;;;;;5093343;28;20376;-89
2022/06/11 11:13:39;;;;;;;5.72;2.42;;;9.40;83.10;;;;;;5092372;28;20368;-88
2022/06/11 11:16:22;;;;;;;3.37;1.83;;;9.30;83.60;;;;;;5091835;28;20404;-90
2022/06/11 11:19:22;;;;;;;5.07;1.70;;;9.30;84.30;;;;;;5092768;28;20728;-88
2022/06/11 11:21:49;;;;;;;4.15;1.60;;;9.20;84.60;;;;;;5091933;28;20365;-88
2022/06/11 11:24:23;;;;;;;5.97;1.50;;;9.20;85.80;;;;;;5073713;28;20388;-90
2022/06/11 11:27:15;;;;;;;4.70;1.60;;;9.20;85.70;;;;;;5091867;28;20376;-84
2022/06/11 11:29:53;;;;;;;3.83;1.50;;;9.20;86.70;;;;;;4991453;28;20373;-90
2022/06/11 11:32:52;;;;;;;4.15;1.55;;;9.20;86.90;;;;;;4991842;28;20380;-92
2022/06/11 11:35:37;;;;;;;5.07;1.73;;;9.10;87.40;;;;;;4933492;29;20409;-87
2022/06/11 11:38:13;;;;;;;4.53;2.38;;;9.00;88.20;;;;;;4932598;29;20425;-85
2022/06/11 11:40:53;;;;;;;5.82;2.53;;;8.80;89.50;;;;;;4931896;29;20378;-88
2022/06/11 11:43:23;;;;;;;8.13;2.92;;;8.60;90.60;;;;;;4932244;29;20381;-88
2022/06/11 11:46:05;;;;;;;7.23;3.00;;;8.50;91.50;;;;;;4931752;29;20845;-86
2022/06/11 11:48:42;;;;;;;6.43;3.03;;;8.40;91.90;;;;;;4932535;29;20386;-89
2022/06/11 11:51:19;;;;;;;5.35;2.97;;;8.40;92.60;;;;;;4932641;29;20386;-89
2022/06/11 11:53:50;;;;;;;7.03;3.40;;;8.40;93.30;;;;;;4916502;29;20404;-85
2022/06/11 11:56:30;;;;;;;7.20;3.03;;;8.30;93.60;;;;;;4931896;29;20389;-86
2022/06/11 11:59:03;;;;;;;7.03;2.87;;;8.10;94.30;;;;;;4932067;29;20389;-90
2022/06/11 12:01:33;;;;;;;6.68;2.88;;;8.00;94.80;;;;;;4932140;29;20401;-87
2022/06/11 12:04:26;;;;;;;6.00;3.10;;;8.00;95.50;;;;;;4915947;29;20429;-88
2022/06/11 12:07:06;;;;;;;5.68;3.15;;;8.00;95.90;;;;;;4986444;28;20897;-84
2022/06/11 12:09:53;;;;;;;6.00;3.00;;;8.10;95.80;;;;;;5028816;28;20377;-85
2022/06/11 12:12:30;;;;;;;7.07;3.00;;;8.00;96.00;;;;;;5091126;28;20725;-88
2022/06/11 12:15:19;;;;;;;7.45;3.00;;;7.80;96.40;;;;;;5091867;28;20365;-85
2022/06/11 12:18:00;;;;;;;5.60;2.90;;;7.80;96.70;;;;;;5090668;28;20397;-86
2022/06/11 12:20:42;;;;;;;5.63;2.90;;;7.70;97.00;;;;;;5091446;28;20360;-89
2022/06/11 12:23:33;;;;;;;4.55;2.50;;;7.50;97.50;;;;;;5091013;28;20689;-87
2022/06/11 12:26:19;;;;;;;6.37;2.73;;;7.50;98.50;;;;;;5090794;28;20407;-89
2022/06/11 12:29:16;;;;;;;6.53;3.08;;;7.50;98.40;;;;;;5090557;28;20364;-84
2022/06/11 12:31:43;;;;;;;5.35;2.60;;;7.40;98.70;;;;;;5090876;28;20369;-88
2022/06/11 12:34:22;;;;;;;9.98;3.00;;;7.20;99.20;;;;;;5090822;28;20373;-87
2022/06/11 12:36:57;;;;;;;7.78;3.20;;;7.20;99.50;;;;;;5089765;28;20401;-85
2022/06/11 12:39:59;;;;;;;5.57;3.00;;;7.10;99.70;;;;;;5090681;28;20369;-87
2022/06/11 12:43:13;;;;;;;7.80;3.30;;;7.00;99.90;;;;;;5090043;28;20387;-89
2022/06/11 12:46:09;;;;;;;10.02;3.42;;;7.00;99.90;;;;;;5089615;28;20455;-88
2022/06/11 12:49:01;;;;;;;8.63;3.95;;;6.90;99.90;;;;;;5090206;28;20395;-88
2022/06/11 12:51:42;;;;;;;7.13;3.83;;;7.20;99.90;;;;;;5090110;28;20364;-87
2022/06/11 12:54:32;;;;;;;8.45;4.00;;;7.40;99.90;;;;;;5090094;28;20364;-87
2022/06/11 12:57:20;;;;;;;7.82;4.10;;;7.30;99.90;;;;;;4988944;28;20559;-88
2022/06/11 12:59:47;;;;;;;9.35;3.85;;;7.20;99.90;;;;;;4988643;28;20456;-84
2022/06/11 13:02:33;;;;;;;8.10;3.72;;;7.10;99.90;;;;;;4987948;28;20412;-85
2022/06/11 13:05:03;;;;;;;6.53;3.50;;;7.00;99.90;;;;;;4988624;28;20384;-87
2022/06/11 13:08:09;;;;;;;7.63;3.40;;;6.90;99.90;;;;;;4988115;28;20413;-88
2022/06/11 13:10:49;;;;;;;7.38;3.60;;;6.80;99.90;;;;;;4989906;28;20381;-85
2022/06/11 13:13:37;;;;;;;6.35;3.25;;;6.70;99.90;;;;;;4990292;28;20377;-82
2022/06/11 13:16:31;;;;;;;6.60;3.40;;;6.70;99.90;;;;;;4991916;28;20901;-87
2022/06/11 13:18:58;;;;;;;9.43;4.20;;;6.70;99.90;;;;;;4991099;28;20395;-87
2022/06/11 13:22:02;;;;;;;7.35;3.75;;;6.60;99.90;;;;;;4989845;28;20876;-89
2022/06/11 13:24:56;;;;;;;8.38;4.10;;;6.60;99.90;;;;;;4930925;29;20481;-88
2022/06/11 13:27:37;;;;;;;8.30;3.67;;;6.50;99.90;;;;;;4931120;29;20383;-86
2022/06/11 13:30:37;;;;;;;8.13;3.80;;;6.50;99.90;;;;;;4931127;29;20541;-89
2022/06/11 13:33:06;;;;;;;8.80;3.80;;;6.60;99.90;;;;;;4937982;28;20735;-89
2022/06/11 13:36:01;;;;;;;6.70;3.60;;;6.60;99.90;;;;;;5026864;28;20421;-84
2022/06/11 13:38:46;;;;;;;6.57;3.20;;;6.60;99.90;;;;;;4968683;28;20398;-85
2022/06/11 13:41:34;;;;;;;6.72;3.20;;;6.80;99.90;;;;;;4968968;28;20389;-89